sensor_id;sensor_type;location;lat;lon;timestamp;P1;durP1;ratioP1;P2;durP2;ratioP2
15312;SDS011;7757;52.626;4.746;2022-07-29T00:00:02;8.25;;;1.73;;
15312;SDS011;7757;52.626;4.746;2022-07-29T00:02:30;7.30;;;1.55;;
15312;SDS011;7757;52.626;4.746;2022-07-29T00:04:57;8.43;;;1.75;;
15312;SDS011;7757;52.626;4.746;2022-07-29T00:07:24;5.95;;;1.50;;
15312;SDS011;7757;52.626;4.746;2022-07-29T00:09:51;7.65;;;1.77;;
15312;SDS011;7757;52.626;4.746;2022-07-29T00:12:17;10.05;;;1.83;;
15312;SDS011;7757;52.626;4.746;2022-07-29T00:14:45;9.15;;;1.63;;
15312;SDS011;7757;52.626;4.746;2022-07-29T00:17:13;7.35;;;1.77;;
15312;SDS011;7757;52.626;4.746;2022-07-29T00:19:39;6.53;;;1.80;;
15312;SDS011;7757;52.626;4.746;2022-07-29T00:22:06;6.65;;;1.55;;
15312;SDS011;7757;52.626;4.746;2022-07-29T00:24:32;7.05;;;1.88;;
15312;SDS011;7757;52.626;4.746;2022-07-29T00:26:59;8.77;;;2.42;;
15312;SDS011;7757;52.626;4.746;2022-07-29T00:29:25;10.35;;;2.60;;
15312;SDS011;7757;52.626;4.746;2022-07-29T00:31:52;8.80;;;2.20;;
15312;SDS011;7757;52.626;4.746;2022-07-29T00:34:19;11.73;;;3.20;;
15312;SDS011;7757;52.626;4.746;2022-07-29T00:37:03;9.32;;;2.60;;
15312;SDS011;7757;52.626;4.746;2022-07-29T00:39:30;8.25;;;1.90;;
15312;SDS011;7757;52.626;4.746;2022-07-29T00:41:56;9.88;;;1.85;;
15312;SDS011;7757;52.626;4.746;2022-07-29T00:44:23;7.75;;;1.70;;
15312;SDS011;7757;52.626;4.746;2022-07-29T00:46:49;5.72;;;1.60;;
15312;SDS011;7757;52.626;4.746;2022-07-29T00:49:16;6.60;;;1.60;;
15312;SDS011;7757;52.626;4.746;2022-07-29T00:51:44;5.70;;;1.60;;
15312;SDS011;7757;52.626;4.746;2022-07-29T00:54:10;7.68;;;1.58;;
15312;SDS011;7757;52.626;4.746;2022-07-29T00:56:37;5.68;;;1.45;;
15312;SDS011;7757;52.626;4.746;2022-07-29T00:59:04;6.30;;;1.50;;
15312;SDS011;7757;52.626;4.746;2022-07-29T01:01:31;4.72;;;1.40;;
15312;SDS011;7757;52.626;4.746;2022-07-29T01:03:57;6.78;;;1.50;;
15312;SDS011;7757;52.626;4.746;2022-07-29T01:06:24;6.55;;;1.50;;
15312;SDS011;7757;52.626;4.746;2022-07-29T01:08:52;5.38;;;1.52;;
15312;SDS011;7757;52.626;4.746;2022-07-29T01:11:19;5.22;;;1.73;;
15312;SDS011;7757;52.626;4.746;2022-07-29T01:13:46;5.30;;;1.40;;
15312;SDS011;7757;52.626;4.746;2022-07-29T01:16:15;9.63;;;1.83;;
15312;SDS011;7757;52.626;4.746;2022-07-29T01:18:52;7.35;;;1.80;;
15312;SDS011;7757;52.626;4.746;2022-07-29T01:21:40;7.53;;;1.70;;
15312;SDS011;7757;52.626;4.746;2022-07-29T01:24:33;6.90;;;1.52;;
15312;SDS011;7757;52.626;4.746;2022-07-29T01:27:08;7.93;;;1.55;;
15312;SDS011;7757;52.626;4.746;2022-07-29T01:29:54;4.97;;;1.50;;
15312;SDS011;7757;52.626;4.746;2022-07-29T01:32:24;6.88;;;1.60;;
15312;SDS011;7757;52.626;4.746;2022-07-29T01:34:54;7.47;;;1.60;;
15312;SDS011;7757;52.626;4.746;2022-07-29T01:37:26;7.80;;;1.70;;
15312;SDS011;7757;52.626;4.746;2022-07-29T01:39:57;8.57;;;1.60;;
15312;SDS011;7757;52.626;4.746;2022-07-29T01:42:27;6.15;;;1.48;;
15312;SDS011;7757;52.626;4.746;2022-07-29T01:45:00;8.43;;;1.60;;
15312;SDS011;7757;52.626;4.746;2022-07-29T01:47:31;7.80;;;1.65;;
15312;SDS011;7757;52.626;4.746;2022-07-29T01:50:04;5.80;;;1.60;;
15312;SDS011;7757;52.626;4.746;2022-07-29T01:52:36;8.18;;;1.70;;
15312;SDS011;7757;52.626;4.746;2022-07-29T01:55:07;7.38;;;1.80;;
15312;SDS011;7757;52.626;4.746;2022-07-29T01:57:38;6.88;;;1.70;;
15312;SDS011;7757;52.626;4.746;2022-07-29T02:00:10;8.50;;;1.80;;
15312;SDS011;7757;52.626;4.746;2022-07-29T02:02:39;7.50;;;2.03;;
15312;SDS011;7757;52.626;4.746;2022-07-29T02:05:07;9.18;;;2.08;;
15312;SDS011;7757;52.626;4.746;2022-07-29T02:07:38;9.13;;;1.90;;
15312;SDS011;7757;52.626;4.746;2022-07-29T02:10:07;5.95;;;1.77;;
15312;SDS011;7757;52.626;4.746;2022-07-29T02:12:35;8.18;;;2.05;;
15312;SDS011;7757;52.626;4.746;2022-07-29T02:15:04;11.38;;;1.90;;
15312;SDS011;7757;52.626;4.746;2022-07-29T02:17:35;7.80;;;1.80;;
15312;SDS011;7757;52.626;4.746;2022-07-29T02:20:07;6.57;;;1.63;;
15312;SDS011;7757;52.626;4.746;2022-07-29T02:22:36;9.90;;;2.00;;
15312;SDS011;7757;52.626;4.746;2022-07-29T02:25:04;9.50;;;2.03;;
15312;SDS011;7757;52.626;4.746;2022-07-29T02:27:33;10.88;;;1.90;;
15312;SDS011;7757;52.626;4.746;2022-07-29T02:30:00;8.48;;;1.83;;
15312;SDS011;7757;52.626;4.746;2022-07-29T02:32:30;5.65;;;1.65;;
15312;SDS011;7757;52.626;4.746;2022-07-29T02:34:59;7.72;;;1.90;;
15312;SDS011;7757;52.626;4.746;2022-07-29T02:37:28;6.72;;;1.80;;
15312;SDS011;7757;52.626;4.746;2022-07-29T02:39:56;7.28;;;1.75;;
15312;SDS011;7757;52.626;4.746;2022-07-29T02:42:26;5.85;;;1.60;;
15312;SDS011;7757;52.626;4.746;2022-07-29T02:44:54;9.73;;;2.00;;
15312;SDS011;7757;52.626;4.746;2022-07-29T02:47:21;8.75;;;1.92;;
15312;SDS011;7757;52.626;4.746;2022-07-29T02:49:55;7.70;;;1.88;;
15312;SDS011;7757;52.626;4.746;2022-07-29T02:52:29;10.13;;;1.95;;
15312;SDS011;7757;52.626;4.746;2022-07-29T02:55:07;9.13;;;2.10;;
15312;SDS011;7757;52.626;4.746;2022-07-29T02:57:41;11.48;;;2.38;;
15312;SDS011;7757;52.626;4.746;2022-07-29T03:00:10;7.85;;;2.03;;
15312;SDS011;7757;52.626;4.746;2022-07-29T03:02:39;8.88;;;2.10;;
15312;SDS011;7757;52.626;4.746;2022-07-29T03:05:10;10.52;;;2.10;;
15312;SDS011;7757;52.626;4.746;2022-07-29T03:07:43;8.85;;;1.60;;
15312;SDS011;7757;52.626;4.746;2022-07-29T03:10:13;9.15;;;2.08;;
15312;SDS011;7757;52.626;4.746;2022-07-29T03:12:40;8.57;;;1.90;;
15312;SDS011;7757;52.626;4.746;2022-07-29T03:15:08;8.15;;;2.08;;
15312;SDS011;7757;52.626;4.746;2022-07-29T03:17:35;8.52;;;1.80;;
15312;SDS011;7757;52.626;4.746;2022-07-29T03:20:03;6.82;;;1.77;;
15312;SDS011;7757;52.626;4.746;2022-07-29T03:22:31;8.38;;;1.88;;
15312;SDS011;7757;52.626;4.746;2022-07-29T03:25:03;8.02;;;2.05;;
15312;SDS011;7757;52.626;4.746;2022-07-29T03:27:34;6.93;;;1.95;;
15312;SDS011;7757;52.626;4.746;2022-07-29T03:30:00;6.20;;;1.60;;
15312;SDS011;7757;52.626;4.746;2022-07-29T03:32:27;6.43;;;1.77;;
15312;SDS011;7757;52.626;4.746;2022-07-29T03:34:53;7.30;;;2.10;;
15312;SDS011;7757;52.626;4.746;2022-07-29T03:37:20;8.32;;;1.80;;
15312;SDS011;7757;52.626;4.746;2022-07-29T03:39:46;11.38;;;2.20;;
15312;SDS011;7757;52.626;4.746;2022-07-29T03:42:16;5.85;;;1.70;;
15312;SDS011;7757;52.626;4.746;2022-07-29T03:44:47;6.65;;;1.85;;
15312;SDS011;7757;52.626;4.746;2022-07-29T03:47:15;5.82;;;1.60;;
15312;SDS011;7757;52.626;4.746;2022-07-29T03:49:45;8.55;;;2.08;;
15312;SDS011;7757;52.626;4.746;2022-07-29T03:52:15;8.48;;;1.52;;
15312;SDS011;7757;52.626;4.746;2022-07-29T03:54:43;6.88;;;1.95;;
15312;SDS011;7757;52.626;4.746;2022-07-29T03:57:10;6.85;;;1.85;;
15312;SDS011;7757;52.626;4.746;2022-07-29T03:59:39;8.02;;;2.00;;
15312;SDS011;7757;52.626;4.746;2022-07-29T04:02:08;9.10;;;1.70;;
15312;SDS011;7757;52.626;4.746;2022-07-29T04:04:36;7.93;;;1.70;;
15312;SDS011;7757;52.626;4.746;2022-07-29T04:07:03;6.72;;;1.45;;
15312;SDS011;7757;52.626;4.746;2022-07-29T04:09:30;9.85;;;1.60;;
15312;SDS011;7757;52.626;4.746;2022-07-29T04:11:57;6.93;;;1.73;;
15312;SDS011;7757;52.626;4.746;2022-07-29T04:14:23;6.13;;;1.70;;
15312;SDS011;7757;52.626;4.746;2022-07-29T04:16:51;9.75;;;2.08;;
15312;SDS011;7757;52.626;4.746;2022-07-29T04:19:18;8.57;;;1.88;;
15312;SDS011;7757;52.626;4.746;2022-07-29T04:21:45;9.20;;;1.88;;
15312;SDS011;7757;52.626;4.746;2022-07-29T04:24:11;10.68;;;2.00;;
15312;SDS011;7757;52.626;4.746;2022-07-29T04:26:38;7.47;;;1.95;;
15312;SDS011;7757;52.626;4.746;2022-07-29T04:29:04;7.13;;;1.73;;
15312;SDS011;7757;52.626;4.746;2022-07-29T04:31:31;7.07;;;1.90;;
15312;SDS011;7757;52.626;4.746;2022-07-29T04:33:59;9.27;;;1.90;;
15312;SDS011;7757;52.626;4.746;2022-07-29T04:36:25;7.38;;;1.98;;
15312;SDS011;7757;52.626;4.746;2022-07-29T04:38:52;9.30;;;2.08;;
15312;SDS011;7757;52.626;4.746;2022-07-29T04:41:18;10.63;;;2.05;;
15312;SDS011;7757;52.626;4.746;2022-07-29T04:43:45;7.60;;;1.73;;
15312;SDS011;7757;52.626;4.746;2022-07-29T04:46:11;10.77;;;2.20;;
15312;SDS011;7757;52.626;4.746;2022-07-29T04:48:38;8.77;;;2.30;;
15312;SDS011;7757;52.626;4.746;2022-07-29T04:51:05;8.63;;;2.05;;
15312;SDS011;7757;52.626;4.746;2022-07-29T04:53:32;11.73;;;2.53;;
15312;SDS011;7757;52.626;4.746;2022-07-29T04:55:59;6.40;;;1.73;;
15312;SDS011;7757;52.626;4.746;2022-07-29T04:58:25;9.18;;;2.00;;
15312;SDS011;7757;52.626;4.746;2022-07-29T05:00:52;8.13;;;2.22;;
15312;SDS011;7757;52.626;4.746;2022-07-29T05:03:19;6.93;;;1.98;;
15312;SDS011;7757;52.626;4.746;2022-07-29T05:05:45;10.77;;;2.60;;
15312;SDS011;7757;52.626;4.746;2022-07-29T05:08:13;7.38;;;1.95;;
15312;SDS011;7757;52.626;4.746;2022-07-29T05:10:40;10.65;;;2.80;;
15312;SDS011;7757;52.626;4.746;2022-07-29T05:13:06;8.40;;;2.33;;
15312;SDS011;7757;52.626;4.746;2022-07-29T05:15:33;9.25;;;1.92;;
15312;SDS011;7757;52.626;4.746;2022-07-29T05:18:01;8.93;;;2.13;;
15312;SDS011;7757;52.626;4.746;2022-07-29T05:20:28;8.57;;;2.10;;
15312;SDS011;7757;52.626;4.746;2022-07-29T05:22:55;9.25;;;2.15;;
15312;SDS011;7757;52.626;4.746;2022-07-29T05:25:23;11.18;;;2.50;;
15312;SDS011;7757;52.626;4.746;2022-07-29T05:27:50;11.18;;;2.28;;
15312;SDS011;7757;52.626;4.746;2022-07-29T05:30:17;10.20;;;1.92;;
15312;SDS011;7757;52.626;4.746;2022-07-29T05:32:44;9.68;;;2.08;;
15312;SDS011;7757;52.626;4.746;2022-07-29T05:35:11;8.85;;;1.92;;
15312;SDS011;7757;52.626;4.746;2022-07-29T05:37:38;7.25;;;1.50;;
15312;SDS011;7757;52.626;4.746;2022-07-29T05:40:05;9.07;;;1.98;;
15312;SDS011;7757;52.626;4.746;2022-07-29T05:42:34;6.15;;;1.80;;
15312;SDS011;7757;52.626;4.746;2022-07-29T05:45:01;6.93;;;2.00;;
15312;SDS011;7757;52.626;4.746;2022-07-29T05:47:28;6.53;;;1.67;;
15312;SDS011;7757;52.626;4.746;2022-07-29T05:49:55;8.43;;;2.03;;
15312;SDS011;7757;52.626;4.746;2022-07-29T05:52:22;7.43;;;2.00;;
15312;SDS011;7757;52.626;4.746;2022-07-29T05:54:48;8.32;;;2.08;;
15312;SDS011;7757;52.626;4.746;2022-07-29T05:57:16;6.97;;;2.00;;
15312;SDS011;7757;52.626;4.746;2022-07-29T05:59:44;5.15;;;1.50;;
15312;SDS011;7757;52.626;4.746;2022-07-29T06:02:12;8.63;;;1.90;;
15312;SDS011;7757;52.626;4.746;2022-07-29T06:04:38;8.57;;;1.90;;
15312;SDS011;7757;52.626;4.746;2022-07-29T06:07:05;7.60;;;1.67;;
15312;SDS011;7757;52.626;4.746;2022-07-29T06:09:32;8.63;;;1.80;;
15312;SDS011;7757;52.626;4.746;2022-07-29T06:11:58;8.40;;;1.83;;
15312;SDS011;7757;52.626;4.746;2022-07-29T06:14:25;8.55;;;2.00;;
15312;SDS011;7757;52.626;4.746;2022-07-29T06:16:54;8.55;;;2.13;;
15312;SDS011;7757;52.626;4.746;2022-07-29T06:19:21;7.85;;;2.00;;
15312;SDS011;7757;52.626;4.746;2022-07-29T06:21:47;11.73;;;2.30;;
15312;SDS011;7757;52.626;4.746;2022-07-29T06:24:14;10.07;;;2.05;;
15312;SDS011;7757;52.626;4.746;2022-07-29T06:26:42;10.05;;;1.80;;
15312;SDS011;7757;52.626;4.746;2022-07-29T06:29:09;11.73;;;2.03;;
15312;SDS011;7757;52.626;4.746;2022-07-29T06:31:37;9.73;;;1.90;;
15312;SDS011;7757;52.626;4.746;2022-07-29T06:34:06;7.40;;;1.83;;
15312;SDS011;7757;52.626;4.746;2022-07-29T06:36:34;4.30;;;1.30;;
15312;SDS011;7757;52.626;4.746;2022-07-29T06:39:03;11.38;;;2.05;;
15312;SDS011;7757;52.626;4.746;2022-07-29T06:41:30;7.15;;;1.70;;
15312;SDS011;7757;52.626;4.746;2022-07-29T06:43:57;9.07;;;1.80;;
15312;SDS011;7757;52.626;4.746;2022-07-29T06:46:24;8.02;;;2.22;;
15312;SDS011;7757;52.626;4.746;2022-07-29T06:48:51;9.25;;;2.30;;
15312;SDS011;7757;52.626;4.746;2022-07-29T06:51:19;7.63;;;1.80;;
15312;SDS011;7757;52.626;4.746;2022-07-29T06:53:46;8.90;;;1.80;;
15312;SDS011;7757;52.626;4.746;2022-07-29T06:56:13;9.93;;;2.15;;
15312;SDS011;7757;52.626;4.746;2022-07-29T06:58:39;8.43;;;1.98;;
15312;SDS011;7757;52.626;4.746;2022-07-29T07:01:06;10.25;;;2.00;;
15312;SDS011;7757;52.626;4.746;2022-07-29T07:03:33;9.05;;;2.00;;
15312;SDS011;7757;52.626;4.746;2022-07-29T07:06:00;8.25;;;1.98;;
15312;SDS011;7757;52.626;4.746;2022-07-29T07:08:28;10.82;;;2.17;;
15312;SDS011;7757;52.626;4.746;2022-07-29T07:10:54;9.48;;;2.00;;
15312;SDS011;7757;52.626;4.746;2022-07-29T07:13:21;12.57;;;2.35;;
15312;SDS011;7757;52.626;4.746;2022-07-29T07:15:49;9.00;;;1.80;;
15312;SDS011;7757;52.626;4.746;2022-07-29T07:18:16;9.60;;;2.22;;
15312;SDS011;7757;52.626;4.746;2022-07-29T07:20:44;9.80;;;2.10;;
15312;SDS011;7757;52.626;4.746;2022-07-29T07:23:11;10.30;;;2.00;;
15312;SDS011;7757;52.626;4.746;2022-07-29T07:25:38;11.23;;;1.98;;
15312;SDS011;7757;52.626;4.746;2022-07-29T07:28:05;6.60;;;1.73;;
15312;SDS011;7757;52.626;4.746;2022-07-29T07:30:31;9.00;;;2.00;;
15312;SDS011;7757;52.626;4.746;2022-07-29T07:32:59;8.73;;;2.10;;
15312;SDS011;7757;52.626;4.746;2022-07-29T07:35:25;8.98;;;1.60;;
15312;SDS011;7757;52.626;4.746;2022-07-29T07:37:52;12.07;;;2.15;;
15312;SDS011;7757;52.626;4.746;2022-07-29T07:40:19;10.95;;;2.05;;
15312;SDS011;7757;52.626;4.746;2022-07-29T07:42:47;10.70;;;1.90;;
15312;SDS011;7757;52.626;4.746;2022-07-29T07:45:13;8.15;;;2.05;;
15312;SDS011;7757;52.626;4.746;2022-07-29T07:47:40;7.97;;;1.55;;
15312;SDS011;7757;52.626;4.746;2022-07-29T07:50:08;12.70;;;2.20;;
15312;SDS011;7757;52.626;4.746;2022-07-29T07:52:37;10.40;;;2.25;;
15312;SDS011;7757;52.626;4.746;2022-07-29T07:55:12;8.05;;;1.70;;
15312;SDS011;7757;52.626;4.746;2022-07-29T07:57:39;6.05;;;1.70;;
15312;SDS011;7757;52.626;4.746;2022-07-29T08:00:07;9.73;;;1.83;;
15312;SDS011;7757;52.626;4.746;2022-07-29T08:02:34;8.80;;;2.15;;
15312;SDS011;7757;52.626;4.746;2022-07-29T08:05:01;9.98;;;2.13;;
15312;SDS011;7757;52.626;4.746;2022-07-29T08:07:28;8.07;;;1.80;;
15312;SDS011;7757;52.626;4.746;2022-07-29T08:09:54;8.40;;;1.95;;
15312;SDS011;7757;52.626;4.746;2022-07-29T08:12:21;6.43;;;1.80;;
15312;SDS011;7757;52.626;4.746;2022-07-29T08:14:50;7.07;;;1.90;;
15312;SDS011;7757;52.626;4.746;2022-07-29T08:17:18;7.68;;;1.73;;
15312;SDS011;7757;52.626;4.746;2022-07-29T08:19:44;7.80;;;1.85;;
15312;SDS011;7757;52.626;4.746;2022-07-29T08:22:13;7.85;;;2.10;;
15312;SDS011;7757;52.626;4.746;2022-07-29T08:24:40;10.45;;;1.98;;
15312;SDS011;7757;52.626;4.746;2022-07-29T08:27:09;10.80;;;2.10;;
15312;SDS011;7757;52.626;4.746;2022-07-29T08:29:36;8.68;;;1.90;;
15312;SDS011;7757;52.626;4.746;2022-07-29T08:32:03;11.55;;;2.30;;
15312;SDS011;7757;52.626;4.746;2022-07-29T08:34:31;9.85;;;2.22;;
15312;SDS011;7757;52.626;4.746;2022-07-29T08:36:58;8.90;;;2.33;;
15312;SDS011;7757;52.626;4.746;2022-07-29T08:39:25;7.85;;;2.00;;
15312;SDS011;7757;52.626;4.746;2022-07-29T08:41:51;11.50;;;2.30;;
15312;SDS011;7757;52.626;4.746;2022-07-29T08:44:20;9.23;;;1.90;;
15312;SDS011;7757;52.626;4.746;2022-07-29T08:46:47;7.75;;;2.30;;
15312;SDS011;7757;52.626;4.746;2022-07-29T08:49:14;10.07;;;2.13;;
15312;SDS011;7757;52.626;4.746;2022-07-29T08:51:42;9.40;;;2.45;;
15312;SDS011;7757;52.626;4.746;2022-07-29T08:54:09;9.05;;;2.13;;
15312;SDS011;7757;52.626;4.746;2022-07-29T08:56:37;9.55;;;2.00;;
15312;SDS011;7757;52.626;4.746;2022-07-29T08:59:06;11.77;;;2.50;;
15312;SDS011;7757;52.626;4.746;2022-07-29T09:01:34;12.05;;;2.60;;
15312;SDS011;7757;52.626;4.746;2022-07-29T09:04:03;7.10;;;2.00;;
15312;SDS011;7757;52.626;4.746;2022-07-29T09:06:32;9.20;;;2.05;;
15312;SDS011;7757;52.626;4.746;2022-07-29T09:09:04;12.50;;;2.35;;
15312;SDS011;7757;52.626;4.746;2022-07-29T09:11:32;9.07;;;2.90;;
15312;SDS011;7757;52.626;4.746;2022-07-29T09:13:59;17.30;;;2.70;;
15312;SDS011;7757;52.626;4.746;2022-07-29T09:16:25;9.82;;;2.33;;
15312;SDS011;7757;52.626;4.746;2022-07-29T09:18:52;11.63;;;2.40;;
15312;SDS011;7757;52.626;4.746;2022-07-29T09:21:19;9.35;;;2.17;;
15312;SDS011;7757;52.626;4.746;2022-07-29T09:24:05;11.10;;;2.13;;
15312;SDS011;7757;52.626;4.746;2022-07-29T09:26:34;7.85;;;2.15;;
15312;SDS011;7757;52.626;4.746;2022-07-29T09:29:07;7.82;;;1.90;;
15312;SDS011;7757;52.626;4.746;2022-07-29T09:31:36;13.13;;;2.75;;
15312;SDS011;7757;52.626;4.746;2022-07-29T09:34:05;12.77;;;2.47;;
15312;SDS011;7757;52.626;4.746;2022-07-29T09:36:37;11.98;;;2.53;;
15312;SDS011;7757;52.626;4.746;2022-07-29T09:39:06;11.07;;;2.73;;
15312;SDS011;7757;52.626;4.746;2022-07-29T09:41:43;10.73;;;2.20;;
15312;SDS011;7757;52.626;4.746;2022-07-29T09:44:11;9.80;;;2.33;;
15312;SDS011;7757;52.626;4.746;2022-07-29T09:46:38;11.95;;;2.50;;
15312;SDS011;7757;52.626;4.746;2022-07-29T09:49:06;10.85;;;2.15;;
15312;SDS011;7757;52.626;4.746;2022-07-29T09:51:33;7.07;;;1.95;;
15312;SDS011;7757;52.626;4.746;2022-07-29T09:54:00;9.07;;;2.47;;
15312;SDS011;7757;52.626;4.746;2022-07-29T09:56:40;13.07;;;2.58;;
15312;SDS011;7757;52.626;4.746;2022-07-29T09:59:08;12.30;;;2.33;;
15312;SDS011;7757;52.626;4.746;2022-07-29T10:01:36;8.73;;;2.15;;
15312;SDS011;7757;52.626;4.746;2022-07-29T10:04:03;10.15;;;2.55;;
15312;SDS011;7757;52.626;4.746;2022-07-29T10:06:29;9.65;;;1.83;;
15312;SDS011;7757;52.626;4.746;2022-07-29T10:09:06;11.00;;;2.45;;
15312;SDS011;7757;52.626;4.746;2022-07-29T10:11:33;10.60;;;2.10;;
15312;SDS011;7757;52.626;4.746;2022-07-29T10:14:02;10.98;;;2.53;;
15312;SDS011;7757;52.626;4.746;2022-07-29T10:16:30;9.27;;;2.40;;
15312;SDS011;7757;52.626;4.746;2022-07-29T10:18:58;13.60;;;3.08;;
15312;SDS011;7757;52.626;4.746;2022-07-29T10:21:26;13.20;;;3.08;;
15312;SDS011;7757;52.626;4.746;2022-07-29T10:23:52;12.20;;;2.30;;
15312;SDS011;7757;52.626;4.746;2022-07-29T10:26:19;7.97;;;1.80;;
15312;SDS011;7757;52.626;4.746;2022-07-29T10:28:46;12.90;;;2.40;;
15312;SDS011;7757;52.626;4.746;2022-07-29T10:31:16;11.20;;;2.28;;
15312;SDS011;7757;52.626;4.746;2022-07-29T10:33:55;9.18;;;2.20;;
15312;SDS011;7757;52.626;4.746;2022-07-29T10:36:38;10.52;;;2.20;;
15312;SDS011;7757;52.626;4.746;2022-07-29T10:39:17;10.85;;;2.30;;
15312;SDS011;7757;52.626;4.746;2022-07-29T10:41:59;10.13;;;2.00;;
15312;SDS011;7757;52.626;4.746;2022-07-29T10:44:36;9.00;;;2.10;;
15312;SDS011;7757;52.626;4.746;2022-07-29T10:47:08;11.90;;;2.67;;
15312;SDS011;7757;52.626;4.746;2022-07-29T10:49:53;11.95;;;2.28;;
15312;SDS011;7757;52.626;4.746;2022-07-29T10:52:21;9.65;;;2.08;;
15312;SDS011;7757;52.626;4.746;2022-07-29T10:54:50;7.25;;;2.13;;
15312;SDS011;7757;52.626;4.746;2022-07-29T10:57:18;10.65;;;2.42;;
15312;SDS011;7757;52.626;4.746;2022-07-29T10:59:47;10.45;;;2.55;;
15312;SDS011;7757;52.626;4.746;2022-07-29T11:05:13;11.50;;;3.05;;
15312;SDS011;7757;52.626;4.746;2022-07-29T11:10:52;10.75;;;2.28;;
15312;SDS011;7757;52.626;4.746;2022-07-29T11:13:46;10.40;;;2.45;;
15312;SDS011;7757;52.626;4.746;2022-07-29T11:16:15;8.70;;;2.13;;
15312;SDS011;7757;52.626;4.746;2022-07-29T11:21:48;9.88;;;2.40;;
15312;SDS011;7757;52.626;4.746;2022-07-29T11:24:16;14.50;;;2.67;;
15312;SDS011;7757;52.626;4.746;2022-07-29T11:26:45;7.28;;;2.10;;
15312;SDS011;7757;52.626;4.746;2022-07-29T11:29:32;8.35;;;2.00;;
15312;SDS011;7757;52.626;4.746;2022-07-29T11:32:08;9.93;;;2.42;;
15312;SDS011;7757;52.626;4.746;2022-07-29T11:34:36;10.38;;;2.17;;
15312;SDS011;7757;52.626;4.746;2022-07-29T11:37:18;11.55;;;3.10;;
15312;SDS011;7757;52.626;4.746;2022-07-29T11:42:44;9.50;;;2.45;;
15312;SDS011;7757;52.626;4.746;2022-07-29T11:45:16;11.75;;;2.80;;
15312;SDS011;7757;52.626;4.746;2022-07-29T11:47:51;14.20;;;2.72;;
15312;SDS011;7757;52.626;4.746;2022-07-29T11:50:30;11.07;;;2.80;;
15312;SDS011;7757;52.626;4.746;2022-07-29T11:53:03;10.18;;;2.50;;
15312;SDS011;7757;52.626;4.746;2022-07-29T11:55:37;10.05;;;2.30;;
15312;SDS011;7757;52.626;4.746;2022-07-29T11:58:04;12.73;;;3.13;;
15312;SDS011;7757;52.626;4.746;2022-07-29T12:00:32;11.43;;;2.85;;
15312;SDS011;7757;52.626;4.746;2022-07-29T12:03:00;12.07;;;2.50;;
15312;SDS011;7757;52.626;4.746;2022-07-29T12:05:36;12.15;;;3.08;;
15312;SDS011;7757;52.626;4.746;2022-07-29T12:08:08;11.18;;;2.20;;
15312;SDS011;7757;52.626;4.746;2022-07-29T12:10:40;10.88;;;2.80;;
15312;SDS011;7757;52.626;4.746;2022-07-29T12:13:07;9.98;;;2.30;;
15312;SDS011;7757;52.626;4.746;2022-07-29T12:15:33;12.20;;;2.30;;
15312;SDS011;7757;52.626;4.746;2022-07-29T12:18:09;9.45;;;2.40;;
15312;SDS011;7757;52.626;4.746;2022-07-29T12:20:38;10.38;;;2.40;;
15312;SDS011;7757;52.626;4.746;2022-07-29T12:23:05;10.35;;;2.50;;
15312;SDS011;7757;52.626;4.746;2022-07-29T12:25:34;12.68;;;2.67;;
15312;SDS011;7757;52.626;4.746;2022-07-29T12:28:03;11.35;;;2.33;;
15312;SDS011;7757;52.626;4.746;2022-07-29T12:30:34;10.93;;;2.20;;
15312;SDS011;7757;52.626;4.746;2022-07-29T12:33:09;12.73;;;2.70;;
15312;SDS011;7757;52.626;4.746;2022-07-29T12:35:38;10.55;;;2.20;;
15312;SDS011;7757;52.626;4.746;2022-07-29T12:38:05;11.82;;;3.00;;
15312;SDS011;7757;52.626;4.746;2022-07-29T12:40:32;13.65;;;2.35;;
15312;SDS011;7757;52.626;4.746;2022-07-29T12:43:09;14.25;;;2.97;;
15312;SDS011;7757;52.626;4.746;2022-07-29T12:45:37;12.02;;;2.75;;
15312;SDS011;7757;52.626;4.746;2022-07-29T12:48:04;12.00;;;2.58;;
15312;SDS011;7757;52.626;4.746;2022-07-29T12:50:33;10.38;;;2.60;;
15312;SDS011;7757;52.626;4.746;2022-07-29T12:53:11;16.05;;;2.90;;
15312;SDS011;7757;52.626;4.746;2022-07-29T12:55:39;9.18;;;2.28;;
15312;SDS011;7757;52.626;4.746;2022-07-29T12:58:13;14.43;;;2.40;;
15312;SDS011;7757;52.626;4.746;2022-07-29T13:00:58;12.13;;;2.40;;
15312;SDS011;7757;52.626;4.746;2022-07-29T13:03:26;10.27;;;2.40;;
15312;SDS011;7757;52.626;4.746;2022-07-29T13:05:54;8.55;;;2.38;;
15312;SDS011;7757;52.626;4.746;2022-07-29T13:08:22;9.60;;;2.20;;
15312;SDS011;7757;52.626;4.746;2022-07-29T13:10:49;10.57;;;2.38;;
15312;SDS011;7757;52.626;4.746;2022-07-29T13:13:15;11.63;;;2.47;;
15312;SDS011;7757;52.626;4.746;2022-07-29T13:15:42;14.80;;;2.50;;
15312;SDS011;7757;52.626;4.746;2022-07-29T13:18:27;16.95;;;3.00;;
15312;SDS011;7757;52.626;4.746;2022-07-29T13:20:54;11.55;;;2.50;;
15312;SDS011;7757;52.626;4.746;2022-07-29T13:23:22;12.65;;;2.60;;
15312;SDS011;7757;52.626;4.746;2022-07-29T13:25:49;14.93;;;2.13;;
15312;SDS011;7757;52.626;4.746;2022-07-29T13:28:16;14.23;;;2.95;;
15312;SDS011;7757;52.626;4.746;2022-07-29T13:30:42;12.07;;;2.60;;
15312;SDS011;7757;52.626;4.746;2022-07-29T13:33:09;12.93;;;2.63;;
15312;SDS011;7757;52.626;4.746;2022-07-29T13:35:35;13.38;;;2.70;;
15312;SDS011;7757;52.626;4.746;2022-07-29T13:38:02;15.77;;;2.78;;
15312;SDS011;7757;52.626;4.746;2022-07-29T13:40:30;12.40;;;2.40;;
15312;SDS011;7757;52.626;4.746;2022-07-29T13:42:56;7.70;;;1.92;;
15312;SDS011;7757;52.626;4.746;2022-07-29T13:45:23;15.50;;;3.08;;
15312;SDS011;7757;52.626;4.746;2022-07-29T13:47:50;11.57;;;2.65;;
15312;SDS011;7757;52.626;4.746;2022-07-29T13:50:16;14.88;;;3.00;;
15312;SDS011;7757;52.626;4.746;2022-07-29T13:52:42;13.60;;;2.78;;
15312;SDS011;7757;52.626;4.746;2022-07-29T13:55:09;15.23;;;2.90;;
15312;SDS011;7757;52.626;4.746;2022-07-29T13:57:37;11.88;;;2.13;;
15312;SDS011;7757;52.626;4.746;2022-07-29T14:00:04;13.82;;;2.67;;
15312;SDS011;7757;52.626;4.746;2022-07-29T14:02:31;11.45;;;2.28;;
15312;SDS011;7757;52.626;4.746;2022-07-29T14:04:58;15.20;;;3.25;;
15312;SDS011;7757;52.626;4.746;2022-07-29T14:07:25;12.38;;;2.92;;
15312;SDS011;7757;52.626;4.746;2022-07-29T14:09:51;14.40;;;3.10;;
15312;SDS011;7757;52.626;4.746;2022-07-29T14:12:21;12.50;;;3.15;;
15312;SDS011;7757;52.626;4.746;2022-07-29T14:14:49;14.90;;;2.72;;
15312;SDS011;7757;52.626;4.746;2022-07-29T14:17:16;11.35;;;2.90;;
15312;SDS011;7757;52.626;4.746;2022-07-29T14:19:42;12.15;;;2.22;;
15312;SDS011;7757;52.626;4.746;2022-07-29T14:22:09;11.57;;;2.30;;
15312;SDS011;7757;52.626;4.746;2022-07-29T14:24:36;15.48;;;3.65;;
15312;SDS011;7757;52.626;4.746;2022-07-29T14:27:03;15.48;;;3.17;;
15312;SDS011;7757;52.626;4.746;2022-07-29T14:29:30;11.57;;;3.05;;
15312;SDS011;7757;52.626;4.746;2022-07-29T14:31:57;11.45;;;2.60;;
15312;SDS011;7757;52.626;4.746;2022-07-29T14:34:24;18.65;;;3.03;;
15312;SDS011;7757;52.626;4.746;2022-07-29T14:36:52;12.18;;;3.22;;
15312;SDS011;7757;52.626;4.746;2022-07-29T14:39:20;14.95;;;2.35;;
15312;SDS011;7757;52.626;4.746;2022-07-29T14:41:48;12.40;;;2.55;;
15312;SDS011;7757;52.626;4.746;2022-07-29T14:44:14;11.30;;;2.85;;
15312;SDS011;7757;52.626;4.746;2022-07-29T14:46:41;13.10;;;2.80;;
15312;SDS011;7757;52.626;4.746;2022-07-29T14:49:09;13.05;;;2.88;;
15312;SDS011;7757;52.626;4.746;2022-07-29T14:51:35;12.30;;;3.10;;
15312;SDS011;7757;52.626;4.746;2022-07-29T14:54:02;12.27;;;2.80;;
15312;SDS011;7757;52.626;4.746;2022-07-29T14:56:29;8.93;;;2.20;;
15312;SDS011;7757;52.626;4.746;2022-07-29T14:58:55;14.82;;;2.78;;
15312;SDS011;7757;52.626;4.746;2022-07-29T15:01:23;15.07;;;2.80;;
15312;SDS011;7757;52.626;4.746;2022-07-29T15:03:50;12.05;;;3.08;;
15312;SDS011;7757;52.626;4.746;2022-07-29T15:06:18;14.05;;;2.90;;
15312;SDS011;7757;52.626;4.746;2022-07-29T15:08:44;13.38;;;2.70;;
15312;SDS011;7757;52.626;4.746;2022-07-29T15:11:11;12.82;;;2.75;;
15312;SDS011;7757;52.626;4.746;2022-07-29T15:13:39;14.07;;;2.60;;
15312;SDS011;7757;52.626;4.746;2022-07-29T15:16:06;13.70;;;2.83;;